Flight Track Log - Related Links

Times and Time Zones

All times are in EDT time to prevent confusion due to time zone crossing. See the SKW4496 flight status page for this flight to view local times or setup timezone preferences in your user account.

Time Position Orientation Groundspeed Altitude Reporting Facility
EDT Latitude Longitude Course Direction KTS MPH feet Rate Location/Type
Thu 10:24:41 PM 40.8033 -111.9633 21° North 157 181 5,100  Level Salt Lake Center
Thu 10:25:00 PM 40.8167 -111.9647 355° North 166 191 5,600 1,800 Climbing Salt Lake Center
Thu 10:26:01 PM 40.8722 -111.9739 353° North 204 235 7,500 1,983 Climbing Salt Lake Center
Thu 10:27:00 PM 41.0979 -111.9708 56° Northeast  Level FlightAware Approximate
Thu 10:27:01 PM 40.9406 -111.9819 355° North 252 290 9,600  Level Salt Lake Center
Thu 10:28:00 PM 41.1737 -111.8662 43° Northeast  Level FlightAware Approximate
Thu 10:28:09 PM 41.0289 -111.9986 352° North 298 343 11,800  Level Salt Lake Center
Thu 10:29:00 PM 41.2569 -111.7882 21° North  Level FlightAware Approximate
Thu 10:29:10 PM 41.1053 -111.9369 31° Northeast 316 364 14,700  Level Salt Lake Center
Thu 10:30:12 PM 41.1794 -111.8650 36° Northeast 325 374 17,200 2,032 Climbing Salt Lake Center
Thu 10:31:14 PM 41.2614 -111.7994 31° Northeast 340 391 18,900 1,790 Climbing Salt Lake Center
Thu 10:32:16 PM 41.3606 -111.7861 North 362 417 20,900 2,032 Climbing Salt Lake Center
Thu 10:33:18 PM 41.4636 -111.7950 356° North 370 426 23,100 2,537 Climbing Salt Lake Center
Thu 10:34:19 PM 41.5828 -111.8058 356° North 358 412 26,100 2,098 Climbing Salt Lake Center
Thu 10:35:21 PM 41.6811 -111.8156 356° North 359 413 27,400 1,152 Climbing Salt Lake Center
Thu 10:36:24 PM 41.7850 -111.8247 356° North 374 430 28,500 1,016 Climbing Salt Lake Center
Thu 10:37:25 PM 41.8908 -111.8344 356° North 379 436 29,500 976 Climbing Salt Lake Center
Thu 10:38:27 PM 42.0044 -111.8456 356° North 404 465 30,500 1,065 Climbing Salt Lake Center
Thu 10:39:29 PM 42.1192 -111.8561 356° North 413 475 31,700 1,403 Climbing Salt Lake Center
Thu 10:40:31 PM 42.2539 -111.8686 356° North 406 467 33,400 1,122 Climbing Salt Lake Center
Thu 10:41:32 PM 42.3658 -111.8806 355° North 404 465 34,000 293 Climbing Salt Lake Center
Thu 10:42:34 PM 42.4825 -111.8906 356° North 418 481 34,000  Level Salt Lake Center
Thu 10:43:36 PM 42.5981 -111.9025 356° North 419 482 34,000  Level Salt Lake Center
Thu 10:44:38 PM 42.7136 -111.9136 356° North 416 479 34,000  Level Salt Lake Center
Thu 10:45:39 PM 42.8456 -111.9261 356° North 426 490 34,000  Level Salt Lake Center
Thu 10:46:41 PM 42.9597 -111.9364 356° North 430 495 34,000  Level Salt Lake Center
Thu 10:47:43 PM 43.0908 -111.9492 356° North 421 484 34,000  Level Salt Lake Center
Thu 10:48:46 PM 43.2014 -111.9625 355° North 418 481 34,000  Level Salt Lake Center
Thu 10:49:47 PM 43.3283 -111.9728 357° North 412 474 34,000  Level Salt Lake Center
Thu 10:50:50 PM 43.4358 -111.9839 356° North 406 467 34,000  Level Salt Lake Center
Thu 10:51:52 PM 43.5617 -111.9958 356° North 405 466 34,000  Level Salt Lake Center
Thu 10:52:54 PM 43.6686 -112.0064 356° North 404 465 34,000  Level Salt Lake Center
Thu 10:53:56 PM 43.7772 -112.0181 356° North 408 470 34,000  Level Salt Lake Center
Thu 10:54:58 PM 43.9044 -112.0311 356° North 408 470 34,000  Level Salt Lake Center
Thu 10:56:00 PM 44.0158 -112.0428 356° North 417 480 34,000  Level Salt Lake Center
Thu 10:57:02 PM 44.1456 -112.0558 356° North 418 481 34,000  Level Salt Lake Center
Thu 10:58:04 PM 44.2556 -112.0656 356° North 415 478 34,000  Level Salt Lake Center
Thu 10:59:06 PM 44.3864 -112.0783 356° North 420 483 34,000  Level Salt Lake Center
Thu 11:00:08 PM 44.4978 -112.0906 356° North 418 481 34,000  Level Salt Lake Center
Thu 11:01:10 PM 44.6264 -112.1036 356° North 413 475 34,000  Level Salt Lake Center
Thu 11:02:11 PM 44.7375 -112.1153 356° North 415 478 34,000  Level Salt Lake Center
Thu 11:03:13 PM 44.8464 -112.1258 356° North 411 473 34,000  Level Salt Lake Center
Thu 11:04:15 PM 44.9731 -112.1403 355° North 407 468 34,000  Level Salt Lake Center
Thu 11:05:17 PM 45.0822 -112.1514 356° North 409 471 34,000  Level Salt Lake Center
Thu 11:06:19 PM 45.2089 -112.1644 356° North 408 470 34,000  Level Salt Lake Center
Thu 11:07:20 PM 45.3178 -112.1764 356° North 409 471 34,000  Level Salt Lake Center
Thu 11:08:22 PM 45.4300 -112.1878 356° North 407 468 34,000  Level Salt Lake Center
Thu 11:09:24 PM 45.5456 -112.2000 356° North 411 473 34,000  Level Salt Lake Center
Thu 11:10:26 PM 45.6600 -112.2133 355° North 412 474 34,000  Level Salt Lake Center
Thu 11:11:27 PM 45.7750 -112.2253 356° North 412 474 34,000  Level Salt Lake Center
Thu 11:12:29 PM 45.8919 -112.2372 356° North 417 480 34,000  Level Salt Lake Center
Thu 11:13:30 PM 46.0314 -112.2517 356° North 417 480 34,000  Level Salt Lake Center
Thu 11:14:32 PM 46.1461 -112.2658 355° North 414 476 34,000  Level Salt Lake Center
Thu 11:15:34 PM 46.2608 -112.2783 356° North 412 474 34,000  Level Salt Lake Center
Thu 11:16:35 PM 46.3769 -112.2919 355° North 416 479 34,000  Level Salt Lake Center
Thu 11:17:37 PM 46.4897 -112.3008 357° North 422 486 34,000  Level Salt Lake Center
Thu 11:18:39 PM 46.6044 -112.3139 356° North 418 481 34,000  Level Salt Lake Center
Thu 11:19:40 PM 46.7197 -112.3264 356° North 416 479 34,000  Level Salt Lake Center
Thu 11:20:41 PM 46.8583 -112.3419 356° North 417 480 34,000  Level Salt Lake Center
Thu 11:21:43 PM 46.9744 -112.3556 355° North 417 480 34,000  Level Salt Lake Center
Thu 11:22:45 PM 47.0919 -112.3683 356° North 422 486 34,000  Level Salt Lake Center
Thu 11:23:46 PM 47.2075 -112.3825 355° North 418 481 34,000  Level Salt Lake Center
Thu 11:24:48 PM 47.3228 -112.3944 356° North 415 478 34,000  Level Salt Lake Center
Thu 11:25:49 PM 47.4386 -112.4064 356° North 415 478 34,000  Level Salt Lake Center
Thu 11:26:50 PM 47.5536 -112.4211 355° North 415 478 34,000  Level Salt Lake Center
Thu 11:27:52 PM 47.6697 -112.4347 355° North 416 479 34,000  Level Salt Lake Center
Thu 11:28:53 PM 47.7844 -112.4494 355° North 415 478 34,000  Level Salt Lake Center
Thu 11:29:55 PM 47.9014 -112.4617 356° North 418 481 34,000  Level Salt Lake Center
Thu 11:30:56 PM 48.0392 -112.4772 356° North 416 479 34,000  Level Salt Lake Center
Thu 11:31:57 PM 48.1550 -112.4903 356° North 416 479 34,000  Level Salt Lake Center
Thu 11:32:59 PM 48.2683 -112.5044 355° North 413 475 34,000  Level Salt Lake Center
Thu 11:34:01 PM 48.3833 -112.5161 356° North 413 475 34,000  Level Salt Lake Center
Thu 11:35:02 PM 48.4981 -112.5308 355° North 413 475 34,000  Level Salt Lake Center
Thu 11:36:03 PM 48.6114 -112.5444 355° North 411 473 34,000  Level Salt Lake Center
Thu 11:37:05 PM 48.7247 -112.5583 355° North 410 472 34,000  Level Salt Lake Center
Thu 11:38:06 PM 48.8378 -112.5717 356° North 409 471 34,000  Level Salt Lake Center
Thu 11:39:07 PM 48.9506 -112.5847 356° North 407 468 34,000  Level Salt Lake Center
Thu 11:40:02 PM 49.0500 -112.6167 348° North 400 460 34,000  Level Edmonton Center
Thu 11:41:02 PM 49.1500 -112.6333 354° North 400 460 34,000  Level Edmonton Center
Thu 11:42:02 PM 49.2667 -112.6333 360° North 400 460 34,000  Level Edmonton Center
Thu 11:43:02 PM 49.3667 -112.6500 354° North 400 460 34,000  Level Edmonton Center
Thu 11:44:02 PM 49.4833 -112.6667 355° North 400 460 34,000  Level Edmonton Center
Thu 11:45:02 PM 49.6000 -112.6833 355° North 400 460 34,000  Level Edmonton Center
Thu 11:46:02 PM 49.7000 -112.7667 332° Northwest 400 460 34,000  Level Edmonton Center
Thu 11:47:02 PM 49.7833 -112.8333 333° Northwest 400 460 34,000 -950 Level Edmonton Center
Thu 11:48:02 PM 49.8833 -112.9167 332° Northwest 400 460 32,100 -2,500 Descending Edmonton Center
Thu 11:49:02 PM 50.0000 -113.0000 335° Northwest 410 472 29,000 -3,000 Descending Edmonton Center
Thu 11:50:02 PM 50.1000 -113.0667 337° Northwest 390 449 26,100 -2,900 Descending Edmonton Center
Thu 11:51:02 PM 50.1833 -113.1667 322° Northwest 390 449 23,200 -3,000 Descending Edmonton Center
Thu 11:52:02 PM 50.2833 -113.2333 337° Northwest 380 437 20,100 -2,867 Descending Edmonton Center
Thu 11:54:02 PM 50.4667 -113.3667 335° Northwest 360 414 14,600 -2,300 Descending Edmonton Center
Thu 11:55:02 PM 50.5333 -113.4333 328° Northwest 330 380 13,200 -1,400 Descending Edmonton Center
Thu 11:56:02 PM 50.6167 -113.5167 328° Northwest 280 322 11,800 -1,350 Descending Edmonton Center
Thu 11:57:02 PM 50.6833 -113.5500 342° North 270 311 10,500 -1,150 Descending Edmonton Center
Thu 11:58:02 PM 50.7500 -113.6167 328° Northwest 270 311 9,500 -1,050 Descending Edmonton Center
Thu 11:59:02 PM 50.8167 -113.6833 328° Northwest 260 299 8,400 -750 Descending Edmonton Center
Fri 12:00:02 AM 50.8167 -113.7833 270° West 280 322 8,000 -650 Descending Edmonton Center
Fri 12:01:02 AM 50.8167 -113.9333 270° West 270 311 7,100 -750 Descending Edmonton Center
Fri 12:02:02 AM 50.8500 -114.0167 302° West 250 288 6,500 -350 Descending Edmonton Center
Fri 12:03:02 AM 50.9000 -114.0500 337° Northwest 180 207 6,400 -100 Descending Edmonton Center

Login

Don't have an account? Register now (free) for customized features, flight alerts, and more!